Latest Coastal Weather Observations for Spring Bay

IDT60701

Issued at 8:35 pm EST Saturday 19 April 2014 (issued every 10 minutes, with the page automatically refreshed every 10 minutes)

About coastal observations | Map of coastal stations | Coastal observations for TAS | Marine services | Other Formats
Station Details ID: 092133 Name: SPRING BAY NTC AWS Lat: -42.55 Lon: 147.93 Height: 0.0 m
Data from the previous 72 hours. | See also: Recent months for locations in Tasmania
Date/Time
EST
Temp

°C
Wind Pressure Rain
since 9am
mm
Weather Cloud Vis
km
Sea
Height
m
Swell
Dir
 
Speed
knots
Gust
knots
hPa Trend Height
m
Period
s
Dir
19/08:30pm 12.6 WSW 6 8 1014.9 - - - - - - - - -
19/08:00pm 12.6 WSW 6 8 1014.9 - - - - - - - - -
19/07:30pm 12.7 WSW 6 8 1014.9 - - - - - - - - -
19/07:00pm 12.8 S 6 8 1014.7 - - - - - - - - -
19/06:30pm 12.8 SSE 8 10 1014.6 - - - - - - - - -
19/06:00pm 13.3 S 5 9 1014.4 - - - - - - - - -
19/05:30pm 13.6 W 2 5 1014.3 - - - - - - - - -
19/05:00pm 13.7 SSW 4 5 1014.3 - - - - - - - - -
19/04:30pm 13.6 S 4 6 1014.3 - - - - - - - - -
19/04:00pm 13.8 S 7 10 1014.2 - - - - - - - - -
19/03:30pm 13.9 SSW 9 15 1014.1 - - - - - - - - -
19/03:00pm 14.1 SSW 10 14 1014.0 - - - - - - - - -
19/02:30pm 14.2 SSW 15 18 1014.1 - - - - - - - - -
19/02:00pm 14.1 S 17 22 1014.1 - - - - - - - - -
19/01:30pm 14.0 S 13 16 1014.0 - - - - - - - - -
19/01:00pm 14.2 SSW 15 22 1014.2 - - - - - - - - -
19/12:30pm 14.3 SW 18 25 1014.6 - - - - - - - - -
19/12:22pm 14.2 SSW 15 25 1014.8 - - - - - - - - -
19/12:00pm 14.0 SW 19 25 1014.9 - - - - - - - - -
19/11:30am 13.9 SW 21 26 1014.9 - - - - - - - - -
19/11:00am 13.4 SSW 19 25 1015.1 - - - - - - - - -
19/10:30am 13.4 SW 20 26 1015.0 - - - - - - - - -
19/10:00am 12.8 SSW 19 26 1015.2 - - - - - - - - -
19/09:30am 12.6 SW 17 24 1015.2 - - - - - - - - -
19/09:16am 12.4 WSW 15 25 1015.1 - - - - - - - - -
19/09:00am 12.0 SW 15 22 1014.9 - - - - - - - - -
19/08:30am 11.7 WSW 13 18 1015.1 - - - - - - - - -
19/08:00am 11.2 SW 9 13 1015.0 - - - - - - - - -
19/07:30am 10.7 SW 9 13 1014.7 - - - - - - - - -
19/07:00am 10.5 SW 8 12 1014.4 - - - - - - - - -
19/06:30am 10.6 SW 9 13 1014.1 - - - - - - - - -
19/06:00am 10.5 SW 9 12 1013.8 - - - - - - - - -
19/05:30am 10.6 WSW 9 12 1013.5 - - - - - - - - -
19/05:00am 10.8 WSW 9 13 1013.2 - - - - - - - - -
19/04:30am 11.2 SW 9 15 1013.2 - - - - - - - - -
19/04:00am 11.1 SW 11 15 1013.2 - - - - - - - - -
19/03:30am 11.4 SW 13 16 1013.0 - - - - - - - - -
19/03:00am 11.4 SW 14 20 1012.8 - - - - - - - - -
19/02:30am 11.4 SW 14 21 1012.8 - - - - - - - - -
19/02:00am 11.7 SW 14 18 1012.7 - - - - - - - - -
19/01:30am 12.0 SW 18 23 1012.6 - - - - - - - - -
19/01:00am 11.9 SW 17 21 1012.4 - - - - - - - - -
19/12:30am 12.1 SW 14 20 1012.5 - - - - - - - - -
19/12:00am 12.3 SSW 14 19 1012.5 - - - - - - - - -
 
Date/Time
EST
Temp

°C
Wind Pressure Rain
since 9am
mm
Weather Cloud Vis
km
Sea
Height
m
Swell
Dir
 
Speed
knots
Gust
knots
hPa Trend Height
m
Period
s
Dir
18/11:30pm 12.4 SSW 13 18 1012.5 - - - - - - - - -
18/11:00pm 12.4 SSW 11 14 1012.4 - - - - - - - - -
18/10:30pm 12.0 SW 13 17 1012.2 - - - - - - - - -
18/10:00pm 12.2 SW 14 17 1012.2 - - - - - - - - -
18/09:30pm 12.3 SW 11 14 1012.1 - - - - - - - - -
18/09:00pm 12.5 SW 11 15 1011.9 - - - - - - - - -
18/08:30pm 12.8 SW 11 15 1011.6 - - - - - - - - -
18/08:00pm 13.0 SW 13 17 1011.3 - - - - - - - - -
18/07:30pm 12.7 WSW 8 11 1011.0 - - - - - - - - -
18/07:00pm 13.1 SW 12 16 1010.6 - - - - - - - - -
18/06:30pm 13.7 SSW 13 18 1010.3 - - - - - - - - -
18/06:00pm 14.0 SSW 15 20 1009.9 - - - - - - - - -
18/05:30pm 14.4 SSW 15 22 1009.5 - - - - - - - - -
18/05:00pm 14.7 SSW 14 18 1008.8 - - - - - - - - -
18/04:30pm 15.0 S 13 17 1008.3 - - - - - - - - -
18/04:00pm 15.2 SSW 15 21 1007.9 - - - - - - - - -
18/03:30pm 14.9 SSW 18 24 1007.6 - - - - - - - - -
18/03:00pm 14.4 SW 14 20 1007.6 - - - - - - - - -
18/02:30pm 14.4 SW 17 21 1007.2 - - - - - - - - -
18/02:00pm 14.3 SSW 17 25 1007.3 - - - - - - - - -
18/01:30pm 13.8 SSW 10 14 1007.4 - - - - - - - - -
18/01:00pm 13.9 WSW 9 14 1007.5 - - - - - - - - -
18/12:30pm 14.2 SSW 9 14 1007.2 - - - - - - - - -
18/12:00pm 13.6 WSW 12 18 1007.3 - - - - - - - - -
18/11:30am 13.5 WSW 18 26 1007.7 - - - - - - - - -
18/11:26am 13.4 WSW 16 26 1007.8 - - - - - - - - -
18/11:09am 13.6 SW 20 26 1007.8 - - - - - - - - -
18/11:00am 17.5 W 15 26 1007.7 - - - - - - - - -
18/10:30am 18.0 NW 14 19 1006.6 - - - - - - - - -
18/10:00am 17.2 N 9 13 1006.6 - - - - - - - - -
18/09:30am 15.9 NNE 5 8 1007.2 - - - - - - - - -
18/09:00am 16.1 N 8 12 1007.8 - - - - - - - - -
18/08:30am 15.3 N 9 13 1008.4 - - - - - - - - -
18/08:00am 15.4 N 11 14 1008.6 - - - - - - - - -
18/07:30am 15.1 N 13 14 1009.1 - - - - - - - - -
18/07:00am 15.2 NNW 12 17 1009.3 - - - - - - - - -
18/06:30am 13.8 NNW 3 5 1009.7 - - - - - - - - -
18/06:00am 14.4 N 6 10 1010.1 - - - - - - - - -
18/05:30am 15.0 NNW 10 16 1010.3 - - - - - - - - -
18/05:00am 15.1 NNW 12 16 1010.5 - - - - - - - - -
18/04:30am 14.8 NNW 9 13 1011.2 - - - - - - - - -
18/04:00am 14.8 NNW 9 12 1011.5 - - - - - - - - -
18/03:30am 14.6 NNW 11 13 1011.8 - - - - - - - - -
18/03:00am 14.8 NNW 12 14 1012.3 - - - - - - - - -
18/02:30am 15.3 NNW 11 14 1012.6 - - - - - - - - -
18/02:00am 14.7 N 7 11 1013.1 - - - - - - - - -
18/01:30am 15.4 NW 5 8 1013.5 - - - - - - - - -
18/01:00am 15.5 NW 6 10 1014.0 - - - - - - - - -
18/12:30am 15.7 WNW 8 17 1014.3 - - - - - - - - -
18/12:00am 15.4 NW 6 12 1014.6 - - - - - - - - -
 
Date/Time
EST
Temp

°C
Wind Pressure Rain
since 9am
mm
Weather Cloud Vis
km
Sea
Height
m
Swell
Dir
 
Speed
knots
Gust
knots
hPa Trend Height
m
Period
s
Dir
17/11:30pm 15.2 NNW 8 13 1015.0 - - - - - - - - -
17/11:00pm 15.3 NNW 10 13 1015.3 - - - - - - - - -
17/10:30pm 15.3 NNW 12 15 1015.7 - - - - - - - - -
17/10:00pm 15.4 NNW 13 15 1016.2 - - - - - - - - -
17/09:30pm 15.2 NNW 10 12 1016.4 - - - - - - - - -
17/09:00pm 14.6 NNW 6 9 1016.7 - - - - - - - - -
17/08:30pm 15.0 NW 5 7 1016.8 - - - - - - - - -
17/08:00pm 15.0 WNW 6 9 1016.8 - - - - - - - - -
17/07:30pm 15.5 NNW 7 9 1016.9 - - - - - - - - -
17/07:00pm 15.0 NNW 6 8 1017.2 - - - - - - - - -
17/06:30pm 16.0 N 8 13 1017.2 - - - - - - - - -
17/06:00pm 16.3 N 8 12 1017.0 - - - - - - - - -
17/05:30pm 16.7 N 11 16 1017.0 - - - - - - - - -
17/05:00pm 17.3 N 9 15 1016.8 - - - - - - - - -
17/04:30pm 17.7 N 13 16 1016.9 - - - - - - - - -
17/04:00pm 18.2 N 12 16 1017.3 - - - - - - - - -
17/03:30pm 18.5 N 8 10 1017.5 - - - - - - - - -
17/03:00pm 18.1 NNE 12 15 1017.7 - - - - - - - - -
17/02:30pm 18.5 NNE 9 16 1018.0 - - - - - - - - -
17/02:00pm 18.1 NE 11 15 1018.2 - - - - - - - - -
17/01:30pm 18.0 NE 10 14 1018.5 - - - - - - - - -
17/01:00pm 17.8 NE 10 13 1019.0 - - - - - - - - -
17/12:30pm 18.5 NNW 9 12 1019.4 - - - - - - - - -
17/12:00pm 18.3 NNW 6 13 1019.9 - - - - - - - - -
17/11:30am 17.1 E 4 8 1020.4 - - - - - - - - -
17/11:00am 15.3 SE 4 5 1020.6 - - - - - - - - -
17/10:30am 14.9 S 1 2 1020.7 - - - - - - - - -
17/10:00am 14.3 N 2 4 1020.9 - - - - - - - - -
17/09:30am 13.0 WNW 1 2 1021.1 - - - - - - - - -
17/09:00am 13.1 WNW 2 4 1021.1 - - - - - - - - -
17/08:30am 13.5 WSW 2 3 1021.2 - - - - - - - - -
17/08:00am 10.1 WNW 3 5 1021.3 - - - - - - - - -
17/07:30am 10.0 NW 3 5 1021.2 - - - - - - - - -
17/07:00am 9.3 NW 4 5 1021.0 - - - - - - - - -

Other Formats:

Comma delimited format used in spreadsheet applications
http://www.bom.gov.au/fwo/IDT60701/IDT60701.95987.axf

JavaScript Object Notation format (JSON) in row-major order
http://www.bom.gov.au/fwo/IDT60701/IDT60701.95987.json